Time;durP1;ratioP1;P1;durP2;ratioP2;P2;SDS_P1;SDS_P2;PMS_P1;PMS_P2;Temp;Humidity;BMP_temperature;BMP_pressure;BME280_temperature;BME280_humidity;BME280_pressure;Samples;Min_cycle;Max_cycle;Signal;HPM_P1;HPM_P2
2021/11/18 00:07:50;;;;;;;;;;;;;;;7.38;100.00;100024.13;5043257;28;19987;-68
2021/11/18 00:19:25;;;;;;;;;;;;;;;7.01;100.00;100042.13;5037569;28;19924;-68
2021/11/18 00:40:08;;;;;;;;;;;;;;;7.21;100.00;100036.13;5039822;28;19923;-68
2021/11/18 00:42:33;;;;;;;;;;;;;;;7.08;100.00;100025.03;5042676;28;20364;-68
2021/11/18 00:45:00;;;;;;;;;;;;;;;7.28;100.00;100036.13;5041396;28;19916;-68
2021/11/18 00:47:27;;;;;;;;;;;;;;;7.28;100.00;100040.41;5033356;28;20435;-68
2021/11/18 00:49:59;;;;;;;;;;;;;;;7.29;100.00;100036.97;5039461;28;20680;-68
2021/11/18 00:52:29;;;;;;;;;;;;;;;7.10;100.00;100039.56;5031975;28;19959;-68
2021/11/18 00:55:03;;;;;;;;;;;;;;;7.05;100.00;100038.72;5040214;28;20142;-68
2021/11/18 00:57:29;;;;;;;;;;;;;;;7.51;100.00;100038.63;5037216;28;19925;-68
2021/11/18 00:59:54;;;;;;;;;;;;;;;7.51;100.00;100033.50;5041041;28;19930;-68
2021/11/18 01:02:21;;;;;;;;;;;;;;;7.41;100.00;100047.19;5041126;28;19960;-68
2021/11/18 01:04:47;;;;;;;;;;;;;;;7.33;100.00;100048.91;5041678;28;20856;-68
2021/11/18 01:07:12;;;;;;;;;;;;;;;7.25;100.00;100061.75;5047809;28;19968;-67
2021/11/18 01:09:38;;;;;;;;;;;;;;;7.42;100.00;100069.41;5048542;28;20074;-68
2021/11/18 01:12:05;;;;;;;;;;;;;;;7.56;100.00;100073.66;5027624;28;19925;-68
2021/11/18 01:14:33;;;;;;;;;;;;;;;7.56;100.00;100071.09;5029593;28;19924;-68
2021/11/18 01:16:58;;;;;;;;;;;;;;;7.36;100.00;100066.00;5048394;28;20031;-68
2021/11/18 01:19:24;;;;;;;;;;;;;;;7.52;100.00;100060.81;5028214;28;20455;-70
2021/11/18 01:21:50;;;;;;;;;;;;;;;7.57;100.00;100053.13;5048123;28;19951;-68
2021/11/18 01:24:16;;;;;;;;;;;;;;;6.95;100.00;100047.25;5051077;28;19916;-68
2021/11/18 01:26:42;;;;;;;;;;;;;;;7.43;100.00;100060.84;5048085;28;20004;-68
2021/11/18 01:29:09;;;;;;;;;;;;;;;7.17;100.00;100065.19;5048182;28;20351;-67
2021/11/18 01:31:38;;;;;;;;;;;;;;;7.47;100.00;100057.41;5047423;28;20031;-68
2021/11/18 01:34:04;;;;;;;;;;;;;;;7.15;100.00;100064.31;5049415;28;19917;-68
2021/11/18 01:36:29;;;;;;;;;;;;;;;7.40;100.00;100065.97;5049342;28;19923;-68
2021/11/18 01:38:55;;;;;;;;;;;;;;;7.23;100.00;100062.59;5048868;28;20409;-68
2021/11/18 01:41:25;;;;;;;;;;;;;;;7.39;100.00;100071.97;5048653;28;19921;-68
2021/11/18 01:43:55;;;;;;;;;;;;;;;7.56;100.00;100074.50;5052463;28;19921;-68
2021/11/18 01:46:21;;;;;;;;;;;;;;;7.71;100.00;100081.31;5050372;28;19936;-68
2021/11/18 01:48:47;;;;;;;;;;;;;;;7.56;100.00;100076.22;5050875;28;19923;-68
2021/11/18 01:51:13;;;;;;;;;;;;;;;7.80;100.00;100073.59;5049048;28;19920;-68
2021/11/18 01:53:40;;;;;;;;;;;;;;;7.43;100.00;100070.25;5047365;28;19927;-68
2021/11/18 01:56:07;;;;;;;;;;;;;;;7.56;100.00;100063.41;5031806;28;20007;-68
2021/11/18 01:58:32;;;;;;;;;;;;;;;7.39;100.00;100074.53;5030871;28;21165;-67
2021/11/18 02:00:59;;;;;;;;;;;;;;;7.32;100.00;100073.69;5029717;28;20011;-68
2021/11/18 02:03:25;;;;;;;;;;;;;;;7.32;100.00;100073.69;5040883;28;19924;-68
2021/11/18 02:05:52;;;;;;;;;;;;;;;7.12;100.00;100093.34;5049315;28;19924;-68
2021/11/18 02:08:18;;;;;;;;;;;;;;;7.54;100.00;100082.19;5030417;28;20387;-68
2021/11/18 02:10:44;;;;;;;;;;;;;;;7.44;100.00;100075.38;5050093;28;19917;-68
2021/11/18 02:13:11;;;;;;;;;;;;;;;7.00;100.00;100083.97;5031828;28;19921;-68
2021/11/18 02:15:41;;;;;;;;;;;;;;;7.22;100.00;100097.59;5050186;28;20372;-68
2021/11/18 02:18:24;;;;;;;;;;;;;;;7.45;100.00;100095.00;5051323;28;19916;-68
2021/11/18 02:20:53;;;;;;;;;;;;;;;7.20;100.00;100090.78;5048883;28;20008;-67
2021/11/18 02:23:25;;;;;;;;;;;;;;;7.09;100.00;100101.91;5049781;28;20276;-68
2021/11/18 02:25:55;;;;;;;;;;;;;;;7.50;100.00;100103.56;5046315;28;19920;-68
2021/11/18 02:28:22;;;;;;;;;;;;;;;7.46;100.00;100107.00;5049851;28;19928;-67
2021/11/18 02:30:48;;;;;;;;;;;;;;;6.92;100.00;100113.84;5047497;28;19940;-68
2021/11/18 02:33:17;;;;;;;;;;;;;;;7.45;100.00;100115.50;5022738;28;19928;-68
2021/11/18 02:35:47;;;;;;;;;;;;;;;7.30;100.00;100120.69;5031499;28;19925;-68
2021/11/18 02:38:19;;;;;;;;;;;;;;;7.38;100.00;100113.81;5050283;28;19924;-68
2021/11/18 02:40:51;;;;;;;;;;;;;;;7.53;100.00;100113.81;5031995;28;19962;-68
2021/11/18 02:43:29;;;;;;;;;;;;;;;7.23;100.00;100113.81;5052769;28;19929;-67
2021/11/18 02:45:57;;;;;;;;;;;;;;;7.69;100.00;100114.63;5047067;28;19970;-67
2021/11/18 02:48:24;;;;;;;;;;;;;;;7.99;100.00;100106.84;5047393;28;19924;-67
2021/11/18 02:50:54;;;;;;;;;;;;;;;7.85;100.00;100099.22;5052581;28;19961;-67
2021/11/18 02:53:20;;;;;;;;;;;;;;;7.46;100.00;100101.00;5051610;28;19920;-68
2021/11/18 02:55:47;;;;;;;;;;;;;;;7.31;100.00;100097.59;5051937;28;20312;-68
2021/11/18 02:58:12;;;;;;;;;;;;;;;7.56;100.00;100099.28;5052474;28;19962;-68
2021/11/18 03:00:46;;;;;;;;;;;;;;;7.80;100.00;100112.03;5032478;28;19929;-68
2021/11/18 03:03:36;;;;;;;;;;;;;;;7.41;100.00;100103.59;5049864;28;19916;-68
2021/11/18 03:06:05;;;;;;;;;;;;;;;7.22;100.00;100107.00;5048376;28;19934;-67
2021/11/18 03:08:31;;;;;;;;;;;;;;;7.42;100.00;100115.53;5051101;28;19913;-67
2021/11/18 03:10:56;;;;;;;;;;;;;;;7.22;100.00;100117.25;5052178;28;19967;-68
2021/11/18 03:13:22;;;;;;;;;;;;;;;7.66;100.00;100117.22;5050522;28;19920;-67
2021/11/18 03:15:47;;;;;;;;;;;;;;;7.09;100.00;100126.63;5050015;28;19920;-68
2021/11/18 03:18:13;;;;;;;;;;;;;;;7.36;100.00;100136.03;5051055;28;19920;-68
2021/11/18 03:20:40;;;;;;;;;;;;;;;7.50;100.00;100130.88;5051337;28;19982;-68
2021/11/18 03:23:06;;;;;;;;;;;;;;;7.26;100.00;100124.09;5056250;28;19913;-67
2021/11/18 03:25:35;;;;;;;;;;;;;;;7.33;100.00;100126.63;5052092;28;19978;-67
2021/11/18 03:28:01;;;;;;;;;;;;;;;7.53;100.00;100112.97;5054123;28;19921;-68
2021/11/18 03:30:32;;;;;;;;;;;;;;;7.54;100.00;100110.38;5055038;28;20371;-68
2021/11/18 03:33:04;;;;;;;;;;;;;;;7.24;100.00;100118.13;5053200;28;20364;-68
2021/11/18 03:35:33;;;;;;;;;;;;;;;7.24;100.00;100120.66;5032834;28;20015;-68
2021/11/18 03:38:00;;;;;;;;;;;;;;;7.51;100.00;100119.78;5037466;28;20355;-67
2021/11/18 03:40:26;;;;;;;;;;;;;;;7.24;100.00;100120.66;5057748;28;19928;-68
2021/11/18 03:42:51;;;;;;;;;;;;;;;7.54;100.00;100117.22;5056228;28;19917;-67
2021/11/18 03:45:17;;;;;;;;;;;;;;;7.37;100.00;100117.25;5053752;28;19928;-68
2021/11/18 03:47:43;;;;;;;;;;;;;;;7.26;100.00;100126.66;5053061;28;20379;-68
2021/11/18 03:50:09;;;;;;;;;;;;;;;7.17;100.00;100124.94;5055613;28;19931;-67
2021/11/18 03:52:35;;;;;;;;;;;;;;;6.90;100.00;100141.16;5054543;28;20391;-68
2021/11/18 03:55:03;;;;;;;;;;;;;;;7.29;100.00;100144.56;5052770;28;19917;-68
2021/11/18 03:57:29;;;;;;;;;;;;;;;7.29;100.00;100142.88;5057527;28;19921;-68
2021/11/18 03:59:55;;;;;;;;;;;;;;;7.61;100.00;100136.00;5052963;28;20361;-68
2021/11/18 04:02:20;;;;;;;;;;;;;;;7.45;100.00;100128.34;5051349;28;20027;-68
2021/11/18 04:04:48;;;;;;;;;;;;;;;7.31;100.00;100132.63;5054165;28;19963;-68
2021/11/18 04:07:14;;;;;;;;;;;;;;;7.13;100.00;100136.03;5051851;28;20425;-68
2021/11/18 04:09:41;;;;;;;;;;;;;;;7.08;100.00;100140.31;5052118;28;19974;-68
2021/11/18 04:12:15;;;;;;;;;;;;;;;7.52;100.00;100126.63;5052134;28;19920;-67
2021/11/18 04:14:41;;;;;;;;;;;;;;;7.46;100.00;100130.06;5054242;28;19921;-68
2021/11/18 04:17:07;;;;;;;;;;;;;;;7.59;100.00;100132.59;5054761;28;20462;-68
2021/11/18 04:19:32;;;;;;;;;;;;;;;6.97;100.00;100132.63;5034189;28;19931;-68
2021/11/18 04:21:59;;;;;;;;;;;;;;;7.58;100.00;100136.03;5051215;28;19921;-68
2021/11/18 04:24:26;;;;;;;;;;;;;;;6.99;100.00;100140.31;5053811;28;19927;-68
2021/11/18 04:26:52;;;;;;;;;;;;;;;7.49;100.00;100137.72;5056515;28;19921;-68
2021/11/18 04:29:20;;;;;;;;;;;;;;;7.00;100.00;100130.06;5054995;28;19928;-68
2021/11/18 04:31:47;;;;;;;;;;;;;;;6.92;100.00;100124.06;5052764;28;19924;-68
2021/11/18 04:34:12;;;;;;;;;;;;;;;7.52;100.00;100119.78;5055530;28;20027;-68
2021/11/18 04:36:42;;;;;;;;;;;;;;;7.16;100.00;100104.44;5053847;28;20003;-67
2021/11/18 04:39:09;;;;;;;;;;;;;;;7.13;100.00;100105.28;5053888;28;20187;-68
2021/11/18 04:41:35;;;;;;;;;;;;;;;7.15;100.00;100095.91;5054726;28;21123;-68
2021/11/18 04:44:04;;;;;;;;;;;;;;;6.86;100.00;100099.31;5057806;28;19917;-68
2021/11/18 04:46:33;;;;;;;;;;;;;;;6.86;100.00;100118.94;5033281;28;20601;-68
2021/11/18 04:48:58;;;;;;;;;;;;;;;7.17;100.00;100113.84;5053574;28;20339;-67
2021/11/18 04:51:25;;;;;;;;;;;;;;;7.41;100.00;100098.47;5053627;28;19935;-68
2021/11/18 04:53:50;;;;;;;;;;;;;;;7.33;100.00;100105.28;5057010;28;19920;-68
2021/11/18 04:56:16;;;;;;;;;;;;;;;7.08;100.00;100100.19;5053674;28;19917;-68
2021/11/18 04:58:42;;;;;;;;;;;;;;;7.30;100.00;100105.31;5055036;28;20335;-68
2021/11/18 05:01:08;;;;;;;;;;;;;;;7.10;100.00;100113.84;5054527;28;19955;-69
2021/11/18 05:03:34;;;;;;;;;;;;;;;7.07;100.00;100124.09;5036321;28;19917;-67
2021/11/18 05:05:59;;;;;;;;;;;;;;;7.13;100.00;100128.34;5054674;28;20087;-67
2021/11/18 05:08:26;;;;;;;;;;;;;;;7.36;100.00;100115.53;5051291;28;20011;-67
2021/11/18 05:10:54;;;;;;;;;;;;;;;7.10;100.00;100118.97;5052543;28;19943;-68
2021/11/18 05:13:26;;;;;;;;;;;;;;;7.30;100.00;100120.69;5054494;28;19966;-68
2021/11/18 05:15:53;;;;;;;;;;;;;;;6.98;100.00;100129.22;5047740;28;19920;-67
2021/11/18 05:18:28;;;;;;;;;;;;;;;7.11;100.00;100136.03;5050783;28;19925;-68
2021/11/18 05:20:54;;;;;;;;;;;;;;;7.19;100.00;100142.88;5049450;28;19950;-68
2021/11/18 05:23:22;;;;;;;;;;;;;;;7.55;100.00;100131.75;5049737;28;19921;-68
2021/11/18 05:25:48;;;;;;;;;;;;;;;7.40;100.00;100131.75;5031251;28;19971;-68
2021/11/18 05:28:19;;;;;;;;;;;;;;;7.18;100.00;100130.91;5057014;28;19940;-66
2021/11/18 05:30:46;;;;;;;;;;;;;;;7.35;100.00;100129.22;5047977;28;20951;-68
2021/11/18 05:33:15;;;;;;;;;;;;;;;7.18;100.00;100130.91;5046893;28;19951;-68
2021/11/18 05:35:41;;;;;;;;;;;;;;;7.00;100.00;100137.75;5049620;28;19920;-69
2021/11/18 05:38:08;;;;;;;;;;;;;;;6.97;100.00;100132.63;5045668;28;21129;-68
2021/11/18 05:40:34;;;;;;;;;;;;;;;7.14;100.00;100150.56;5045416;28;19920;-69
2021/11/18 05:43:02;;;;;;;;;;;;;;;7.38;100.00;100139.44;5053130;28;19921;-68
2021/11/18 05:45:29;;;;;;;;;;;;;;;7.13;100.00;100143.72;5050121;28;19921;-69
2021/11/18 05:47:54;;;;;;;;;;;;;;;7.16;100.00;100142.88;5030371;28;19933;-68
2021/11/18 05:50:20;;;;;;;;;;;;;;;7.02;100.00;100148.81;5051307;28;19921;-68
2021/11/18 05:52:50;;;;;;;;;;;;;;;7.11;100.00;100151.41;5049538;28;19951;-68
2021/11/18 05:55:16;;;;;;;;;;;;;;;7.00;100.00;100148.00;5034041;28;20458;-68
2021/11/18 05:57:42;;;;;;;;;;;;;;;7.19;100.00;100142.88;5052374;28;19989;-68
2021/11/18 06:00:12;;;;;;;;;;;;;;;7.40;100.00;100142.88;5054023;28;20412;-68
2021/11/18 06:02:40;;;;;;;;;;;;;;;7.21;100.00;100141.19;5053243;28;19961;-68
2021/11/18 06:05:08;;;;;;;;;;;;;;;7.20;100.00;100142.88;5043856;28;19916;-68
2021/11/18 06:07:33;;;;;;;;;;;;;;;7.10;100.00;100153.97;5050837;28;20334;-68
2021/11/18 06:09:59;;;;;;;;;;;;;;;7.11;100.00;100151.41;5031318;28;19927;-68
2021/11/18 06:12:25;;;;;;;;;;;;;;;7.33;100.00;100152.25;5054828;28;19921;-68
2021/11/18 06:14:51;;;;;;;;;;;;;;;7.35;100.00;100144.59;5054359;28;19920;-68
2021/11/18 06:17:17;;;;;;;;;;;;;;;7.20;100.00;100150.56;5053471;28;20685;-69
2021/11/18 06:20:01;;;;;;;;;;;;;;;7.11;100.00;100145.44;5054400;28;19924;-68
2021/11/18 06:22:27;;;;;;;;;;;;;;;7.34;100.00;100165.91;5053546;28;20002;-68
2021/11/18 06:24:55;;;;;;;;;;;;;;;7.39;100.00;100166.81;5057790;28;19916;-68
2021/11/18 06:27:22;;;;;;;;;;;;;;;7.67;100.00;100172.75;5053917;28;19924;-68
2021/11/18 06:29:51;;;;;;;;;;;;;;;7.33;100.00;100177.03;5054553;28;19920;-69
2021/11/18 06:32:19;;;;;;;;;;;;;;;7.57;100.00;100183.00;5054823;28;19923;-68
2021/11/18 06:34:44;;;;;;;;;;;;;;;7.75;100.00;100183.84;5028653;28;19920;-68
2021/11/18 06:37:11;;;;;;;;;;;;;;;7.71;100.00;100191.56;5057435;28;20260;-68
2021/11/18 06:39:39;;;;;;;;;;;;;;;7.50;100.00;100183.03;5064031;28;19912;-68
2021/11/18 06:42:07;;;;;;;;;;;;;;;7.37;100.00;100195.81;5056067;28;20329;-68
2021/11/18 06:44:33;;;;;;;;;;;;;;;7.47;100.00;100198.38;5055882;28;19921;-68
2021/11/18 06:47:14;;;;;;;;;;;;;;;7.65;100.00;100194.13;5042929;28;19986;-68
2021/11/18 06:49:48;;;;;;;;;;;;;;;7.15;100.00;100198.38;5041155;28;19983;-68
2021/11/18 06:52:16;;;;;;;;;;;;;;;7.51;100.00;100201.81;5033335;28;19921;-68
2021/11/18 06:54:41;;;;;;;;;;;;;;;7.78;100.00;100200.06;5043832;28;19916;-68
2021/11/18 06:57:10;;;;;;;;;;;;;;;7.56;100.00;100196.69;5045755;28;19924;-68
2021/11/18 06:59:35;;;;;;;;;;;;;;;7.83;100.00;100188.97;5047134;28;20419;-68
2021/11/18 07:02:04;;;;;;;;;;;;;;;7.80;100.00;100183.84;5037716;28;19999;-68
2021/11/18 07:04:30;;;;;;;;;;;;;;;7.57;100.00;100183.84;5027872;28;20015;-68
2021/11/18 07:06:56;;;;;;;;;;;;;;;7.38;100.00;100190.69;5047869;28;20035;-68
2021/11/18 07:09:22;;;;;;;;;;;;;;;7.60;100.00;100196.69;5046456;28;19917;-68
2021/11/18 07:11:48;;;;;;;;;;;;;;;7.62;100.00;100200.09;5048167;28;19920;-68
2021/11/18 07:14:17;;;;;;;;;;;;;;;7.69;100.00;100195.84;5047798;28;19916;-68
2021/11/18 07:16:43;;;;;;;;;;;;;;;7.81;100.00;100206.06;5029419;28;19923;-68
2021/11/18 07:19:09;;;;;;;;;;;;;;;7.95;100.00;100199.19;5047384;28;19928;-68
2021/11/18 07:21:36;;;;;;;;;;;;;;;8.25;100.00;100202.53;5047798;28;21102;-67
2021/11/18 07:24:05;;;;;;;;;;;;;;;8.05;100.00;100204.28;5053224;28;19916;-68
2021/11/18 07:26:31;;;;;;;;;;;;;;;7.96;100.00;100206.03;5033248;28;20345;-68
2021/11/18 07:28:57;;;;;;;;;;;;;;;8.03;100.00;100206.00;5051485;28;20011;-68
2021/11/18 07:31:26;;;;;;;;;;;;;;;8.13;100.00;100212.84;5052690;28;20039;-68
2021/11/18 07:34:27;;;;;;;;;;;;;;;8.09;100.00;100211.13;5050592;28;19924;-68
2021/11/18 07:36:55;;;;;;;;;;;;;;;8.17;100.00;100204.28;5050283;28;20423;-68
2021/11/18 07:39:24;;;;;;;;;;;;;;;8.29;100.00;100204.22;5052679;28;20007;-67
2021/11/18 07:41:51;;;;;;;;;;;;;;;8.50;100.00;100192.22;5046737;28;19917;-67
2021/11/18 07:44:17;;;;;;;;;;;;;;;8.21;100.00;100198.28;5029784;28;19927;-68
2021/11/18 07:46:43;;;;;;;;;;;;;;;8.01;100.00;100197.50;5031071;28;19925;-68
2021/11/18 07:49:11;;;;;;;;;;;;;;;8.05;100.00;100194.03;5052841;28;19921;-68
2021/11/18 07:51:40;;;;;;;;;;;;;;;8.39;100.00;100202.47;5051808;28;19916;-68
2021/11/18 07:54:13;;;;;;;;;;;;;;;8.23;100.00;100204.25;5049374;28;20011;-68
2021/11/18 07:56:40;;;;;;;;;;;;;;;8.50;100.00;100203.31;5046392;28;20434;-68
2021/11/18 07:59:09;;;;;;;;;;;;;;;8.83;100.00;100193.75;5053504;28;19916;-68
2021/11/18 08:01:39;;;;;;;;;;;;;;;8.60;100.00;100193.88;5051801;28;19923;-68
2021/11/18 08:04:05;;;;;;;;;;;;;;;8.89;100.00;100200.56;5048909;28;19940;-68
2021/11/18 08:06:34;;;;;;;;;;;;;;;8.85;100.00;100198.88;5049049;28;20534;-68
2021/11/18 08:09:13;;;;;;;;;;;;;;;8.86;100.00;100195.47;5045884;28;19983;-68
2021/11/18 08:11:41;;;;;;;;;;;;;;;8.92;100.00;100198.84;5048074;28;20364;-68
2021/11/18 08:14:08;;;;;;;;;;;;;;;8.57;100.00;100204.16;5031966;28;19916;-68
2021/11/18 08:16:35;;;;;;;;;;;;;;;8.28;100.00;100207.66;5047316;28;20400;-68
2021/11/18 08:19:02;;;;;;;;;;;;;;;8.51;100.00;100211.91;5047114;28;19916;-68
2021/11/18 08:21:31;;;;;;;;;;;;;;;8.32;100.00;100213.63;5046973;28;19912;-68
2021/11/18 08:24:17;;;;;;;;;;;;;;;8.20;100.00;100219.66;5046372;28;19927;-68
2021/11/18 08:26:42;;;;;;;;;;;;;;;8.47;100.00;100233.31;5040101;28;19966;-68
2021/11/18 08:29:08;;;;;;;;;;;;;;;8.60;100.00;100240.09;5045513;28;20013;-68
2021/11/18 08:31:35;;;;;;;;;;;;;;;8.57;100.00;100240.94;5044149;28;19917;-69
2021/11/18 08:34:03;;;;;;;;;;;;;;;8.52;100.00;100240.13;5036678;28;19923;-68
2021/11/18 08:36:33;;;;;;;;;;;;;;;8.57;100.00;100242.66;5042859;28;19912;-68
2021/11/18 08:38:59;;;;;;;;;;;;;;;8.81;100.00;100238.31;5042920;28;19916;-69
2021/11/18 08:41:28;;;;;;;;;;;;;;;8.81;100.00;100238.31;5046345;28;20380;-67
2021/11/18 08:43:54;;;;;;;;;;;;;;;8.79;100.00;100246.00;5044672;28;19916;-68
2021/11/18 08:46:23;;;;;;;;;;;;;;;8.58;100.00;100244.38;5042028;28;19928;-68
2021/11/18 08:48:58;;;;;;;;;;;;;;;8.86;100.00;100257.09;5043431;28;19921;-68
2021/11/18 08:51:28;;;;;;;;;;;;;;;8.48;100.00;100251.25;5041100;28;19916;-69
2021/11/18 08:53:54;;;;;;;;;;;;;;;8.43;100.00;100247.00;5046384;28;20020;-69
2021/11/18 08:56:23;;;;;;;;;;;;;;;8.56;100.00;100251.25;5043035;28;20655;-68
2021/11/18 08:58:55;;;;;;;;;;;;;;;8.51;100.00;100245.28;5042943;28;19916;-68
2021/11/18 09:01:27;;;;;;;;;;;;;;;8.61;100.00;100251.22;5042634;28;19924;-69
2021/11/18 09:03:55;;;;;;;;;;;;;;;8.78;100.00;100240.03;5044460;28;19912;-68
2021/11/18 09:06:22;;;;;;;;;;;;;;;8.65;100.00;100235.81;5044376;28;20299;-68
2021/11/18 09:08:49;;;;;;;;;;;;;;;8.85;100.00;100224.56;5045788;28;19921;-68
2021/11/18 09:11:15;;;;;;;;;;;;;;;8.98;100.00;100227.03;5043991;28;20050;-68
2021/11/18 09:13:41;;;;;;;;;;;;;;;9.07;100.00;100236.44;5044654;28;19954;-68
2021/11/18 09:16:07;;;;;;;;;;;;;;;9.00;100.00;100233.03;5043757;28;19916;-68
2021/11/18 09:18:33;;;;;;;;;;;;;;;9.08;100.00;100240.72;5024054;28;20411;-68
2021/11/18 09:21:02;;;;;;;;;;;;;;;9.09;100.00;100234.69;5046064;28;20003;-68
2021/11/18 09:23:30;;;;;;;;;;;;;;;8.90;100.00;100243.41;5039993;28;19981;-69
2021/11/18 09:25:56;;;;;;;;;;;;;;;9.06;100.00;100237.31;5048604;28;20411;-69
2021/11/18 09:28:24;;;;;;;;;;;;;;;8.87;100.00;100243.38;5043820;28;19919;-69
2021/11/18 09:31:03;;;;;;;;;;;;;;;9.05;100.00;100242.44;5042701;28;19917;-68
2021/11/18 09:33:30;;;;;;;;;;;;;;;9.50;100.00;100245.56;5026570;28;21017;-69
2021/11/18 09:35:57;;;;;;;;;;;;;;;9.17;100.00;100250.94;5045191;28;19916;-68
2021/11/18 09:38:30;;;;;;;;;;;;;;;9.75;100.00;100248.81;5042154;28;19912;-67
2021/11/18 09:40:55;;;;;;;;;;;;;;;9.18;100.00;100250.06;5041709;28;19916;-68
2021/11/18 09:43:39;;;;;;;;;;;;;;;9.01;100.00;100249.34;5044261;28;19939;-68
2021/11/18 09:46:15;;;;;;;;;;;;;;;9.35;100.00;100256.81;5042473;28;19913;-68
2021/11/18 09:48:40;;;;;;;;;;;;;;;9.25;100.00;100250.03;5043747;28;20039;-69
2021/11/18 09:51:08;;;;;;;;;;;;;;;9.40;100.00;100243.06;5044189;28;19959;-68
2021/11/18 09:53:47;;;;;;;;;;;;;;;9.39;100.00;100243.91;5041755;28;19928;-68
2021/11/18 09:56:31;;;;;;;;;;;;;;;9.28;100.00;100234.56;5042957;28;19968;-68
2021/11/18 09:59:17;;;;;;;;;;;;;;;9.34;100.00;100237.13;5041899;28;20448;-68
2021/11/18 10:02:01;;;;;;;;;;;;;;;8.91;100.00;100234.81;5043160;28;20437;-69
2021/11/18 10:04:36;;;;;;;;;;;;;;;9.41;100.00;100243.91;5041734;28;20039;-69
2021/11/18 10:07:05;;;;;;;;;;;;;;;9.58;100.00;100239.50;5037726;28;19924;-68
2021/11/18 10:10:00;;;;;;;;;;;;;;;9.40;100.00;100247.38;5041747;28;19928;-68
2021/11/18 10:12:34;;;;;;;;;;;;;;;9.78;100.00;100241.03;4967463;28;20425;-68
2021/11/18 10:15:05;;;;;;;;;;;;;;;9.74;100.00;100240.25;4964628;28;20008;-69
2021/11/18 10:17:32;;;;;;;;;;;;;;;9.81;100.00;100239.31;4965051;28;19972;-69
2021/11/18 10:20:27;;;;;;;;;;;;;;;9.59;100.00;100241.19;4969545;28;19957;-69
2021/11/18 10:22:54;;;;;;;;;;;;;;;9.64;100.00;100234.28;4970726;28;19984;-68
2021/11/18 10:25:43;;;;;;;;;;;;;;;9.54;100.00;100235.25;4970821;28;19980;-68
2021/11/18 10:28:24;;;;;;;;;;;;;;;9.75;100.00;100235.94;4967551;28;19925;-68
2021/11/18 10:30:56;;;;;;;;;;;;;;;9.78;100.00;100241.03;4968626;28;19922;-68
2021/11/18 10:33:27;;;;;;;;;;;;;;;9.76;100.00;100240.19;4965467;28;19979;-68
2021/11/18 10:36:11;;;;;;;;;;;;;;;9.80;100.00;100231.59;4967688;28;19922;-68
2021/11/18 10:38:39;;;;;;;;;;;;;;;9.81;100.00;100225.59;4971942;28;19917;-68
2021/11/18 10:41:24;;;;;;;;;;;;;;;9.64;100.00;100228.31;4965467;28;20028;-69
2021/11/18 10:44:05;;;;;;;;;;;;;;;9.64;100.00;100233.44;4967940;28;19929;-69
2021/11/18 10:46:37;;;;;;;;;;;;;;;9.61;100.00;100229.19;4968631;28;19968;-68
2021/11/18 10:49:05;;;;;;;;;;;;;;;9.81;100.00;100233.31;5007996;28;20030;-69
2021/11/18 10:51:36;;;;;;;;;;;;;;;9.88;100.00;100232.41;5041193;28;19927;-69
2021/11/18 10:54:04;;;;;;;;;;;;;;;10.14;100.00;100234.69;5033560;28;19932;-69
2021/11/18 10:56:55;;;;;;;;;;;;;;;9.89;100.00;100222.94;5034925;28;20050;-69
2021/11/18 10:59:47;;;;;;;;;;;;;;;10.08;100.00;100213.31;5024865;28;20011;-69
2021/11/18 11:02:15;;;;;;;;;;;;;;;10.09;100.00;100205.59;5026110;28;19928;-69
2021/11/18 11:04:43;;;;;;;;;;;;;;;10.04;100.00;100197.06;5039067;28;20014;-69
2021/11/18 11:07:13;;;;;;;;;;;;;;;9.82;100.00;100192.13;5036924;28;20195;-68
2021/11/18 11:09:45;;;;;;;;;;;;;;;9.77;100.00;100180.19;5032061;28;19924;-69
2021/11/18 11:12:17;;;;;;;;;;;;;;;10.19;100.00;100184.00;5027894;28;20486;-68
2021/11/18 11:14:58;;;;;;;;;;;;;;;9.82;100.00;100188.69;5012033;28;19921;-69
2021/11/18 11:17:42;;;;;;;;;;;;;;;9.71;100.00;100200.81;5030924;28;20051;-69
2021/11/18 11:23:49;;;;;;;;;;;;;;;9.89;100.00;100198.06;4961284;28;19930;-69
2021/11/18 11:26:20;;;;;;;;;;;;;;;10.20;100.00;100183.16;4960422;28;19921;-69
2021/11/18 11:29:11;;;;;;;;;;;;;;;10.10;100.00;100173.81;4959331;28;19918;-69
2021/11/18 11:31:41;;;;;;;;;;;;;;;10.57;100.00;100167.28;4960131;28;20448;-69
2021/11/18 11:34:31;;;;;;;;;;;;;;;9.97;100.00;100167.97;4942461;28;19956;-69
2021/11/18 11:37:05;;;;;;;;;;;;;;;10.41;100.00;100153.75;4958156;28;19933;-69
2021/11/18 11:39:49;;;;;;;;;;;;;;;10.08;100.00;100152.41;4947919;28;19964;-69
2021/11/18 11:42:32;;;;;;;;;;;;;;;10.20;100.00;100157.41;4964651;28;20163;-69
2021/11/18 11:45:18;;;;;;;;;;;;;;;10.11;100.00;100159.25;4962498;28;19929;-69
2021/11/18 11:48:21;;;;;;;;;;;;;;;10.61;100.00;100144.91;4962412;28;20379;-69
2021/11/18 11:50:49;;;;;;;;;;;;;;;9.97;100.00;100144.81;4928932;28;19926;-69
2021/11/18 11:53:50;;;;;;;;;;;;;;;9.89;100.00;100151.75;4929430;28;19930;-68
2021/11/18 11:57:01;;;;;;;;;;;;;;;9.86;100.00;100145.81;4909818;29;20073;-69
2021/11/18 12:03:30;;;;;;;;;;;;;;;10.00;100.00;100142.19;4928692;28;19929;-69
2021/11/18 12:09:42;;;;;;;;;;;;;;;10.03;100.00;100128.44;4941084;28;20042;-69
2021/11/18 12:12:48;;;;;;;;;;;;;;;10.14;100.00;100120.59;4940636;28;19930;-68
2021/11/18 12:15:21;;;;;;;;;;;;;;;10.27;100.00;100127.28;4939801;28;20290;-69
2021/11/18 12:18:15;;;;;;;;;;;;;;;10.00;100.00;100124.19;4935004;28;20041;-69
2021/11/18 12:20:44;;;;;;;;;;;;;;;10.22;100.00;100123.94;4940165;28;19922;-68
2021/11/18 12:23:12;;;;;;;;;;;;;;;9.90;100.00;100117.44;4941524;28;19925;-69
2021/11/18 12:25:56;;;;;;;;;;;;;;;10.20;100.00;100110.22;4937967;28;19929;-68
2021/11/18 12:28:23;;;;;;;;;;;;;;;10.43;100.00;100118.53;4955405;28;20029;-69
2021/11/18 12:31:04;;;;;;;;;;;;;;;10.35;100.00;100119.50;4957497;28;19922;-68
2021/11/18 12:33:34;;;;;;;;;;;;;;;10.56;100.00;100123.50;4957886;28;19961;-69
2021/11/18 12:36:08;;;;;;;;;;;;;;;10.43;100.00;100123.69;4958965;28;20302;-68
2021/11/18 12:38:42;;;;;;;;;;;;;;;10.28;100.00;100134.13;4964231;28;19978;-69
2021/11/18 12:41:11;;;;;;;;;;;;;;;10.20;100.00;100135.97;5044271;28;19935;-69
2021/11/18 12:43:54;;;;;;;;;;;;;;;9.96;100.00;100137.09;5045540;28;19924;-69
2021/11/18 12:46:32;;;;;;;;;;;;;;;9.62;100.00;100146.03;5042702;28;20242;-69
2021/11/18 12:49:05;;;;;;;;;;;;;;;9.96;100.00;100137.94;5037892;28;20426;-68
2021/11/18 12:51:46;;;;;;;;;;;;;;;10.14;100.00;100136.03;5043740;28;19920;-68
2021/11/18 12:54:14;;;;;;;;;;;;;;;10.04;100.00;100148.16;5042896;28;19939;-68
2021/11/18 12:56:52;;;;;;;;;;;;;;;10.65;100.00;100128.50;5043758;28;20564;-68
2021/11/18 12:59:36;;;;;;;;;;;;;;;9.82;100.00;100132.09;5042360;28;20371;-69
2021/11/18 13:02:03;;;;;;;;;;;;;;;10.08;100.00;100131.81;5032854;28;19928;-68
2021/11/18 13:04:37;;;;;;;;;;;;;;;10.17;100.00;100130.84;5018882;28;19920;-68
2021/11/18 13:07:04;;;;;;;;;;;;;;;10.41;100.00;100122.84;5043390;28;19921;-69
2021/11/18 13:09:49;;;;;;;;;;;;;;;10.15;100.00;100127.44;5043326;28;19924;-70
2021/11/18 13:12:27;;;;;;;;;;;;;;;10.39;100.00;100129.72;5030343;28;19925;-68
2021/11/18 13:15:00;;;;;;;;;;;;;;;9.59;100.00;100128.03;5040468;28;19920;-68
2021/11/18 13:17:30;;;;;;;;;;;;;;;9.98;100.00;100132.78;5022082;28;19916;-69
2021/11/18 13:20:15;;;;;;;;;;;;;;;9.93;100.00;100119.97;5040228;28;20758;-69
2021/11/18 13:22:42;;;;;;;;;;;;;;;9.76;100.00;100112.47;5042431;28;20015;-69
2021/11/18 13:25:15;;;;;;;;;;;;;;;9.89;100.00;100112.31;5039860;28;20004;-69
2021/11/18 13:27:44;;;;;;;;;;;;;;;9.71;100.00;100105.63;5041048;28;19982;-68
2021/11/18 13:30:30;;;;;;;;;;;;;;;9.48;100.00;100100.72;5021771;28;19920;-69
2021/11/18 13:33:12;;;;;;;;;;;;;;;9.50;100.00;100112.72;5042046;28;20364;-69
2021/11/18 13:35:38;;;;;;;;;;;;;;;9.80;100.00;100126.97;5027170;28;19991;-69
2021/11/18 13:38:12;;;;;;;;;;;;;;;10.19;100.00;100118.81;5042527;28;19960;-68